Time;durP1;ratioP1;P1;durP2;ratioP2;P2;SDS_P1;SDS_P2;PMS_P1;PMS_P2;Temp;Humidity;BMP_temperature;BMP_pressure;BME280_temperature;BME280_humidity;BME280_pressure;Samples;Min_cycle;Max_cycle;Signal;HPM_P1;HPM_P2
2022/03/27 00:00:39;;;;;;;;;47.25;38.25;;;;;;;;5074765;28;45649;-66
2022/03/27 00:03:06;;;;;;;;;44.50;34.00;;;;;;;;5076287;27;46278;-66
2022/03/27 00:05:32;;;;;;;;;47.25;38.75;;;;;;;;5076080;28;45363;-67
2022/03/27 00:07:57;;;;;;;;;48.75;39.25;;;;;;;;5073734;28;45543;-66
2022/03/27 00:10:22;;;;;;;;;51.25;40.50;;;;;;;;5076997;28;45359;-65
2022/03/27 00:12:47;;;;;;;;;43.00;37.00;;;;;;;;5076011;28;45342;-66
2022/03/27 00:15:13;;;;;;;;;44.50;37.00;;;;;;;;5074488;28;45404;-66
2022/03/27 00:17:38;;;;;;;;;48.50;39.25;;;;;;;;5074837;28;45567;-66
2022/03/27 00:20:05;;;;;;;;;43.50;36.25;;;;;;;;5077145;27;45396;-65
2022/03/27 00:22:30;;;;;;;;;44.25;37.50;;;;;;;;5092564;27;48620;-65
2022/03/27 00:24:56;;;;;;;;;45.50;37.25;;;;;;;;5076485;28;45316;-66
2022/03/27 00:27:21;;;;;;;;;51.25;40.50;;;;;;;;5073846;28;45531;-66
2022/03/27 00:29:46;;;;;;;;;48.25;38.75;;;;;;;;5075880;28;45354;-65
2022/03/27 00:32:11;;;;;;;;;50.50;40.50;;;;;;;;5075781;27;46450;-65
2022/03/27 00:34:38;;;;;;;;;48.75;40.00;;;;;;;;5076210;27;45197;-67
2022/03/27 00:37:03;;;;;;;;;43.00;37.50;;;;;;;;5075223;28;45422;-66
2022/03/27 00:39:28;;;;;;;;;46.50;39.25;;;;;;;;5075776;28;45554;-66
2022/03/27 00:41:54;;;;;;;;;40.75;35.75;;;;;;;;5075428;28;45460;-67
2022/03/27 00:44:20;;;;;;;;;43.00;36.50;;;;;;;;5069399;28;45440;-66
2022/03/27 00:46:45;;;;;;;;;48.00;38.00;;;;;;;;5074825;28;45782;-67
2022/03/27 00:49:11;;;;;;;;;46.25;36.00;;;;;;;;5076722;28;45786;-67
2022/03/27 00:51:36;;;;;;;;;43.75;33.50;;;;;;;;5075396;27;45911;-66
2022/03/27 00:54:01;;;;;;;;;45.75;37.25;;;;;;;;5074040;28;45388;-68
2022/03/27 00:56:26;;;;;;;;;47.50;39.00;;;;;;;;5075774;27;45404;-68
2022/03/27 00:58:52;;;;;;;;;50.00;40.25;;;;;;;;5058161;28;45564;-69
2022/03/27 01:01:17;;;;;;;;;50.50;41.50;;;;;;;;5075758;28;45945;-68
2022/03/27 01:03:43;;;;;;;;;31.75;30.00;;;;;;;;5068090;28;46034;-68
2022/03/27 01:06:23;;;;;;;;;46.75;36.00;;;;;;;;5075605;27;45318;-68
2022/03/27 01:11:32;;;;;;;;;49.25;39.75;;;;;;;;5074159;28;45556;-67
2022/03/27 01:13:58;;;;;;;;;24.00;18.75;;;;;;;;5075370;28;45523;-68
2022/03/27 01:16:36;;;;;;;;;46.50;39.75;;;;;;;;5076104;28;45933;-68
2022/03/27 01:19:02;;;;;;;;;48.25;37.25;;;;;;;;5074193;28;45305;-68
2022/03/27 01:21:27;;;;;;;;;46.00;36.75;;;;;;;;5073645;28;48392;-68
2022/03/27 01:23:54;;;;;;;;;48.00;37.25;;;;;;;;5073596;28;45463;-68
2022/03/27 01:26:19;;;;;;;;;48.50;39.75;;;;;;;;5075409;27;45250;-68
2022/03/27 01:28:44;;;;;;;;;48.25;40.50;;;;;;;;5073854;28;45543;-68
2022/03/27 01:31:10;;;;;;;;;52.75;44.00;;;;;;;;5075719;27;45552;-66
2022/03/27 01:33:35;;;;;;;;;50.25;38.75;;;;;;;;5074878;28;45472;-67
2022/03/27 01:36:00;;;;;;;;;44.25;38.00;;;;;;;;5073830;28;45453;-67
2022/03/27 01:38:26;;;;;;;;;48.00;40.25;;;;;;;;5073791;28;45237;-67
2022/03/27 01:40:52;;;;;;;;;50.75;43.00;;;;;;;;5057359;28;47815;-67
2022/03/27 01:43:17;;;;;;;;;46.50;37.25;;;;;;;;5074765;28;45499;-68
2022/03/27 01:45:42;;;;;;;;;49.00;39.75;;;;;;;;5075893;27;45372;-67
2022/03/27 01:48:07;;;;;;;;;43.00;36.00;;;;;;;;5074880;28;45509;-68
2022/03/27 01:50:33;;;;;;;;;47.25;37.25;;;;;;;;5073442;28;47823;-68
2022/03/27 01:52:58;;;;;;;;;44.75;36.25;;;;;;;;5075001;28;45146;-67
2022/03/27 01:55:24;;;;;;;;;50.00;36.50;;;;;;;;5075786;27;45391;-68
2022/03/27 01:57:49;;;;;;;;;44.50;37.25;;;;;;;;5066226;28;45694;-68
2022/03/27 02:00:14;;;;;;;;;45.25;38.25;;;;;;;;5067329;28;48495;-67
2022/03/27 02:02:40;;;;;;;;;47.50;38.50;;;;;;;;5074523;27;45756;-67
2022/03/27 02:05:05;;;;;;;;;41.75;35.50;;;;;;;;5074788;27;45338;-67
2022/03/27 02:07:37;;;;;;;;;41.50;34.25;;;;;;;;5075029;27;45399;-67
2022/03/27 02:10:03;;;;;;;;;51.50;40.25;;;;;;;;5074557;28;45890;-67
2022/03/27 02:12:29;;;;;;;;;33.00;31.25;;;;;;;;5074721;27;45529;-67
2022/03/27 02:14:56;;;;;;;;;45.25;33.75;;;;;;;;5074622;28;45670;-67
2022/03/27 02:17:21;;;;;;;;;39.50;35.00;;;;;;;;5068137;28;45480;-67
2022/03/27 02:19:46;;;;;;;;;37.25;34.25;;;;;;;;5073622;28;45776;-67
2022/03/27 02:22:11;;;;;;;;;40.50;36.50;;;;;;;;5074996;28;45562;-67
2022/03/27 02:24:36;;;;;;;;;41.00;34.50;;;;;;;;5077179;28;45450;-67
2022/03/27 02:27:02;;;;;;;;;43.25;34.00;;;;;;;;5070607;28;45580;-67
2022/03/27 02:29:27;;;;;;;;;38.50;33.75;;;;;;;;5077808;27;47905;-67
2022/03/27 02:31:52;;;;;;;;;31.50;25.50;;;;;;;;5078047;27;45362;-67
2022/03/27 02:34:17;;;;;;;;;43.25;38.25;;;;;;;;5077342;28;45322;-67
2022/03/27 02:36:43;;;;;;;;;46.75;35.50;;;;;;;;5076644;28;45439;-68
2022/03/27 02:39:08;;;;;;;;;31.25;30.50;;;;;;;;5077517;28;46150;-68
2022/03/27 02:41:34;;;;;;;;;45.25;34.50;;;;;;;;5077419;28;45359;-67
2022/03/27 02:43:59;;;;;;;;;33.25;30.75;;;;;;;;5075043;28;45368;-68
2022/03/27 02:46:24;;;;;;;;;40.75;35.00;;;;;;;;5076910;28;45547;-67
2022/03/27 02:48:49;;;;;;;;;30.00;27.25;;;;;;;;5077699;28;46170;-67
2022/03/27 02:51:15;;;;;;;;;38.00;34.25;;;;;;;;5075992;28;46159;-68
2022/03/27 02:53:40;;;;;;;;;34.50;30.75;;;;;;;;5077391;27;45358;-68
2022/03/27 02:56:07;;;;;;;;;41.25;33.75;;;;;;;;5077628;28;45536;-68
2022/03/27 02:58:32;;;;;;;;;36.75;31.50;;;;;;;;5077367;27;46325;-68
2022/03/27 03:00:57;;;;;;;;;37.75;32.50;;;;;;;;5076504;28;45327;-68
2022/03/27 03:03:23;;;;;;;;;36.50;29.00;;;;;;;;5076106;28;45553;-67
2022/03/27 03:05:48;;;;;;;;;42.25;35.50;;;;;;;;5075472;28;45219;-68
2022/03/27 03:08:15;;;;;;;;;39.25;34.75;;;;;;;;5077431;28;47447;-68
2022/03/27 03:10:40;;;;;;;;;40.00;33.25;;;;;;;;5076762;27;45302;-68
2022/03/27 03:13:08;;;;;;;;;39.75;33.75;;;;;;;;5076820;28;45488;-66
2022/03/27 03:15:33;;;;;;;;;37.25;28.25;;;;;;;;5075726;28;45538;-67
2022/03/27 03:17:59;;;;;;;;;33.75;31.50;;;;;;;;5075580;28;48716;-66
2022/03/27 03:20:24;;;;;;;;;45.00;37.00;;;;;;;;5077228;28;45471;-67
2022/03/27 03:22:50;;;;;;;;;43.25;37.50;;;;;;;;5077106;27;45316;-67
2022/03/27 03:25:15;;;;;;;;;34.50;32.25;;;;;;;;5076372;28;45625;-67
2022/03/27 03:27:40;;;;;;;;;39.50;34.25;;;;;;;;5075548;28;46531;-67
2022/03/27 03:30:06;;;;;;;;;43.75;35.50;;;;;;;;5075531;28;45740;-67
2022/03/27 03:32:33;;;;;;;;;41.75;35.00;;;;;;;;5075544;28;45543;-67
2022/03/27 03:34:58;;;;;;;;;30.75;27.50;;;;;;;;5073777;28;45347;-68
2022/03/27 03:37:24;;;;;;;;;36.75;32.00;;;;;;;;5076161;28;48375;-68
2022/03/27 03:39:49;;;;;;;;;43.25;33.75;;;;;;;;5076694;28;45463;-68
2022/03/27 03:42:15;;;;;;;;;36.50;31.25;;;;;;;;5076647;28;47260;-68
2022/03/27 03:44:41;;;;;;;;;39.75;34.00;;;;;;;;5069330;28;45468;-68
2022/03/27 03:47:06;;;;;;;;;40.75;32.25;;;;;;;;5071073;28;47751;-68
2022/03/27 03:49:32;;;;;;;;;42.75;36.00;;;;;;;;5073901;28;45350;-67
2022/03/27 03:51:57;;;;;;;;;35.50;31.25;;;;;;;;5077356;28;45433;-68
2022/03/27 03:54:22;;;;;;;;;32.75;32.25;;;;;;;;5076481;28;45389;-68
2022/03/27 03:56:47;;;;;;;;;42.75;35.50;;;;;;;;5069235;28;48820;-68
2022/03/27 03:59:13;;;;;;;;;40.50;36.25;;;;;;;;5075185;28;45286;-68
2022/03/27 04:01:38;;;;;;;;;39.50;34.50;;;;;;;;5075165;28;45503;-67
2022/03/27 04:04:03;;;;;;;;;37.75;32.75;;;;;;;;5075671;28;45671;-67
2022/03/27 04:06:28;;;;;;;;;37.00;32.75;;;;;;;;5074618;28;47491;-67
2022/03/27 04:08:54;;;;;;;;;29.50;25.50;;;;;;;;5068955;28;46081;-67
2022/03/27 04:11:19;;;;;;;;;35.50;31.25;;;;;;;;5076450;28;45233;-67
2022/03/27 04:13:44;;;;;;;;;37.75;31.00;;;;;;;;5076321;27;45277;-67
2022/03/27 04:16:10;;;;;;;;;36.00;32.75;;;;;;;;5071117;28;47848;-66
2022/03/27 04:18:35;;;;;;;;;31.75;30.00;;;;;;;;5075851;27;45339;-68
2022/03/27 04:21:01;;;;;;;;;42.75;35.00;;;;;;;;5076064;28;45544;-66
2022/03/27 04:23:26;;;;;;;;;35.50;33.25;;;;;;;;5069096;28;45596;-67
2022/03/27 04:25:51;;;;;;;;;32.75;32.00;;;;;;;;5075876;28;45537;-67
2022/03/27 04:28:16;;;;;;;;;37.50;34.50;;;;;;;;5075265;28;45340;-67
2022/03/27 04:30:41;;;;;;;;;40.75;32.75;;;;;;;;5075908;28;45551;-67
2022/03/27 04:33:08;;;;;;;;;28.00;28.00;;;;;;;;5076267;28;45540;-67
2022/03/27 04:35:34;;;;;;;;;37.75;34.25;;;;;;;;5074252;28;47734;-67
2022/03/27 04:38:00;;;;;;;;;39.25;32.25;;;;;;;;5076117;27;45482;-68
2022/03/27 04:40:25;;;;;;;;;37.00;33.75;;;;;;;;5076358;27;45645;-67
2022/03/27 04:42:50;;;;;;;;;35.50;34.00;;;;;;;;5076069;28;45450;-68
2022/03/27 04:45:15;;;;;;;;;41.75;35.75;;;;;;;;5075335;28;46135;-68
2022/03/27 04:47:40;;;;;;;;;34.25;31.00;;;;;;;;5074754;28;45484;-68
2022/03/27 04:50:06;;;;;;;;;30.00;27.25;;;;;;;;5075970;28;45326;-68
2022/03/27 04:52:31;;;;;;;;;44.00;33.75;;;;;;;;5075848;27;45366;-68
2022/03/27 04:54:56;;;;;;;;;40.25;35.75;;;;;;;;5074485;28;47722;-67
2022/03/27 04:57:22;;;;;;;;;34.00;32.25;;;;;;;;5075524;28;45951;-68
2022/03/27 04:59:47;;;;;;;;;34.25;31.75;;;;;;;;5068477;28;45521;-68
2022/03/27 05:02:12;;;;;;;;;42.25;34.25;;;;;;;;5075397;28;45364;-68
2022/03/27 05:04:40;;;;;;;;;45.50;35.00;;;;;;;;5075569;28;45729;-68
2022/03/27 05:07:05;;;;;;;;;38.00;35.00;;;;;;;;5073968;28;45336;-67
2022/03/27 05:09:30;;;;;;;;;35.50;32.00;;;;;;;;5075272;28;45392;-68
2022/03/27 05:11:55;;;;;;;;;30.25;27.00;;;;;;;;5073856;28;45650;-69
2022/03/27 05:14:21;;;;;;;;;41.00;34.00;;;;;;;;5073992;28;48354;-68
2022/03/27 05:16:47;;;;;;;;;35.25;29.75;;;;;;;;5074104;28;45446;-68
2022/03/27 05:19:12;;;;;;;;;46.00;33.25;;;;;;;;5076085;28;45480;-67
2022/03/27 05:21:37;;;;;;;;;34.00;32.50;;;;;;;;5074914;28;45473;-65
2022/03/27 05:24:03;;;;;;;;;40.50;35.25;;;;;;;;5075010;28;46114;-64
2022/03/27 05:26:28;;;;;;;;;39.00;34.50;;;;;;;;5075012;28;45473;-64
2022/03/27 05:28:54;;;;;;;;;36.75;34.00;;;;;;;;5075463;28;45226;-65
2022/03/27 05:31:19;;;;;;;;;45.50;36.00;;;;;;;;5075923;27;45576;-64
2022/03/27 05:33:45;;;;;;;;;38.50;34.00;;;;;;;;5074774;27;47641;-65
2022/03/27 05:36:10;;;;;;;;;35.50;33.00;;;;;;;;5074960;28;45475;-68
2022/03/27 05:38:37;;;;;;;;;36.50;33.00;;;;;;;;5073591;28;45421;-66
2022/03/27 05:41:03;;;;;;;;;40.25;34.75;;;;;;;;5073739;28;45399;-66
2022/03/27 05:43:28;;;;;;;;;34.50;33.00;;;;;;;;5075046;28;46016;-66
2022/03/27 05:45:53;;;;;;;;;30.00;30.00;;;;;;;;5073975;28;45505;-66
2022/03/27 05:48:19;;;;;;;;;43.75;35.50;;;;;;;;5074949;27;45378;-65
2022/03/27 05:50:44;;;;;;;;;37.00;32.25;;;;;;;;5075050;27;45458;-66
2022/03/27 05:53:09;;;;;;;;;35.50;33.00;;;;;;;;5075172;28;46444;-66
2022/03/27 05:55:35;;;;;;;;;39.25;34.50;;;;;;;;5075147;27;45360;-66
2022/03/27 05:58:00;;;;;;;;;35.00;32.00;;;;;;;;5075953;28;45340;-66
2022/03/27 06:00:26;;;;;;;;;37.50;34.00;;;;;;;;5085140;27;45633;-67
2022/03/27 06:02:52;;;;;;;;;39.00;32.50;;;;;;;;5078195;27;45844;-68
2022/03/27 06:05:22;;;;;;;;;42.25;34.50;;;;;;;;5076805;28;46118;-67
2022/03/27 06:07:49;;;;;;;;;33.00;31.25;;;;;;;;5077211;28;45392;-67
2022/03/27 06:10:16;;;;;;;;;45.00;35.50;;;;;;;;5077352;28;45489;-67
2022/03/27 06:12:43;;;;;;;;;42.25;36.25;;;;;;;;5076780;28;48618;-67
2022/03/27 06:15:09;;;;;;;;;41.50;35.50;;;;;;;;5078090;27;45225;-67
2022/03/27 06:17:37;;;;;;;;;39.00;34.00;;;;;;;;5077869;27;45431;-67
2022/03/27 06:20:03;;;;;;;;;37.75;32.50;;;;;;;;5078066;27;45343;-66
2022/03/27 06:22:28;;;;;;;;;44.50;36.25;;;;;;;;5076375;28;47347;-70
2022/03/27 06:24:53;;;;;;;;;44.25;35.00;;;;;;;;5078338;28;45469;-68
2022/03/27 06:27:19;;;;;;;;;40.00;34.25;;;;;;;;5075933;28;45372;-69
2022/03/27 06:29:44;;;;;;;;;37.00;34.00;;;;;;;;5077643;27;45395;-69
2022/03/27 06:32:09;;;;;;;;;45.75;37.75;;;;;;;;5076665;28;47910;-69
2022/03/27 06:34:35;;;;;;;;;38.75;35.25;;;;;;;;5078221;28;45323;-69
2022/03/27 06:37:00;;;;;;;;;43.25;35.00;;;;;;;;5076957;28;45363;-69
2022/03/27 06:39:25;;;;;;;;;37.25;32.75;;;;;;;;5076270;28;45518;-69
2022/03/27 06:41:50;;;;;;;;;37.75;33.25;;;;;;;;5076042;28;47742;-69
2022/03/27 06:44:15;;;;;;;;;37.25;34.50;;;;;;;;5077721;27;45440;-69
2022/03/27 06:46:43;;;;;;;;;43.00;34.25;;;;;;;;5059963;28;45293;-69
2022/03/27 06:49:08;;;;;;;;;36.25;32.50;;;;;;;;5077172;28;46329;-69
2022/03/27 06:51:34;;;;;;;;;34.00;31.50;;;;;;;;5077154;27;45950;-69
2022/03/27 06:54:00;;;;;;;;;33.25;29.50;;;;;;;;5077589;27;45584;-69
2022/03/27 06:56:25;;;;;;;;;32.25;26.75;;;;;;;;5076233;28;45427;-69
2022/03/27 06:58:51;;;;;;;;;35.75;32.75;;;;;;;;5076573;27;45502;-69
2022/03/27 07:04:00;;;;;;;;;46.25;35.75;;;;;;;;5077355;28;45373;-70
2022/03/27 07:06:25;;;;;;;;;38.50;35.00;;;;;;;;5069147;28;45420;-70
2022/03/27 07:08:51;;;;;;;;;42.00;35.75;;;;;;;;5068090;28;45258;-69
2022/03/27 07:11:16;;;;;;;;;38.75;35.00;;;;;;;;5077109;27;46329;-69
2022/03/27 07:13:41;;;;;;;;;45.75;36.00;;;;;;;;5077319;27;45349;-69
2022/03/27 07:16:07;;;;;;;;;42.75;37.00;;;;;;;;5062851;28;45370;-69
2022/03/27 07:18:32;;;;;;;;;36.75;34.25;;;;;;;;5065475;28;45509;-68
2022/03/27 07:20:59;;;;;;;;;40.50;35.25;;;;;;;;5077154;27;45793;-69
2022/03/27 07:23:24;;;;;;;;;35.25;33.25;;;;;;;;5077041;28;45340;-70
2022/03/27 07:25:52;;;;;;;;;37.75;32.00;;;;;;;;5059549;28;45722;-69
2022/03/27 07:28:18;;;;;;;;;29.25;27.50;;;;;;;;5077804;27;45411;-70
2022/03/27 07:30:45;;;;;;;;;36.00;31.75;;;;;;;;5075543;28;47727;-68
2022/03/27 07:33:11;;;;;;;;;44.50;37.25;;;;;;;;5068844;28;45507;-68
2022/03/27 07:35:36;;;;;;;;;35.25;33.25;;;;;;;;5075139;28;45459;-68
2022/03/27 07:38:03;;;;;;;;;37.50;32.50;;;;;;;;5073667;28;45504;-69
2022/03/27 07:40:28;;;;;;;;;35.25;33.00;;;;;;;;5075838;28;47821;-69
2022/03/27 07:42:54;;;;;;;;;46.00;36.75;;;;;;;;5076798;28;45335;-69
2022/03/27 07:45:21;;;;;;;;;43.75;36.75;;;;;;;;5076811;28;45385;-70
2022/03/27 07:47:47;;;;;;;;;29.50;27.25;;;;;;;;5076707;27;45561;-69
2022/03/27 07:50:13;;;;;;;;;42.75;36.75;;;;;;;;5075207;28;48099;-69
2022/03/27 07:52:39;;;;;;;;;34.50;30.75;;;;;;;;5076832;27;45505;-69
2022/03/27 07:55:04;;;;;;;;;37.00;32.25;;;;;;;;5077268;28;45424;-69
2022/03/27 07:57:29;;;;;;;;;41.00;36.00;;;;;;;;5075265;28;45537;-69
2022/03/27 07:59:55;;;;;;;;;33.00;31.75;;;;;;;;5092295;27;47457;-70
2022/03/27 08:02:21;;;;;;;;;39.25;33.75;;;;;;;;5076335;28;45494;-69
2022/03/27 08:04:46;;;;;;;;;38.25;32.00;;;;;;;;5076930;27;45241;-70
2022/03/27 08:07:12;;;;;;;;;40.50;34.50;;;;;;;;5076936;28;45333;-68
2022/03/27 08:09:37;;;;;;;;;35.25;32.00;;;;;;;;5076010;28;45949;-69
2022/03/27 08:12:02;;;;;;;;;38.25;34.00;;;;;;;;5076155;28;45475;-68
2022/03/27 08:14:31;;;;;;;;;37.75;33.00;;;;;;;;5076395;28;45391;-69
2022/03/27 08:16:56;;;;;;;;;37.75;33.00;;;;;;;;5059390;28;45369;-70
2022/03/27 08:19:22;;;;;;;;;35.25;34.00;;;;;;;;5072440;28;45382;-69
2022/03/27 08:21:47;;;;;;;;;39.75;34.25;;;;;;;;5074387;27;45399;-70
2022/03/27 08:24:12;;;;;;;;;42.25;33.00;;;;;;;;5068785;28;45504;-70
2022/03/27 08:26:55;;;;;;;;;44.25;34.50;;;;;;;;5076048;28;45347;-70
2022/03/27 08:29:21;;;;;;;;;38.75;34.75;;;;;;;;5069753;28;47355;-69
2022/03/27 08:31:46;;;;;;;;;32.00;31.25;;;;;;;;5073437;28;45566;-70
2022/03/27 08:34:13;;;;;;;;;33.00;30.75;;;;;;;;5076721;28;45430;-70
2022/03/27 08:36:38;;;;;;;;;32.25;31.50;;;;;;;;5076081;27;45439;-70
2022/03/27 08:39:03;;;;;;;;;36.25;30.50;;;;;;;;5075733;28;45403;-69
2022/03/27 08:41:29;;;;;;;;;38.75;32.50;;;;;;;;5075876;28;45435;-70
2022/03/27 08:43:58;;;;;;;;;38.00;33.25;;;;;;;;5076127;28;45334;-70
2022/03/27 08:46:25;;;;;;;;;39.25;33.50;;;;;;;;5067717;28;45444;-70
2022/03/27 08:48:50;;;;;;;;;40.75;34.25;;;;;;;;5075544;28;46419;-70
2022/03/27 08:51:38;;;;;;;;;37.25;31.75;;;;;;;;5075594;27;45507;-69
2022/03/27 08:54:10;;;;;;;;;37.00;33.25;;;;;;;;5075746;28;45439;-69
2022/03/27 08:56:36;;;;;;;;;36.25;33.00;;;;;;;;5075724;27;45400;-70
2022/03/27 08:59:04;;;;;;;;;31.25;30.25;;;;;;;;5074937;28;45747;-69
2022/03/27 09:01:30;;;;;;;;;34.25;31.00;;;;;;;;5071211;28;45413;-69
2022/03/27 09:03:55;;;;;;;;;33.50;32.00;;;;;;;;5075977;27;45346;-69
2022/03/27 09:06:22;;;;;;;;;32.75;30.75;;;;;;;;5075340;28;45490;-69
2022/03/27 09:08:49;;;;;;;;;35.00;29.75;;;;;;;;5073864;28;46919;-70
2022/03/27 09:11:18;;;;;;;;;36.25;32.50;;;;;;;;5073954;28;45426;-69
2022/03/27 09:13:48;;;;;;;;;32.25;29.00;;;;;;;;5074220;28;45289;-72
2022/03/27 09:16:13;;;;;;;;;34.50;32.00;;;;;;;;5075834;28;45457;-71
2022/03/27 09:18:44;;;;;;;;;34.00;29.25;;;;;;;;5074937;28;45598;-71
2022/03/27 09:21:10;;;;;;;;;30.25;29.50;;;;;;;;5075051;28;45430;-71
2022/03/27 09:23:35;;;;;;;;;32.50;26.75;;;;;;;;5075248;28;45373;-69
2022/03/27 09:26:13;;;;;;;;;31.50;30.00;;;;;;;;5075430;27;45217;-68
2022/03/27 09:28:38;;;;;;;;;29.00;27.25;;;;;;;;5075361;27;46488;-68
2022/03/27 09:31:24;;;;;;;;;30.50;29.50;;;;;;;;5074752;28;45554;-69
2022/03/27 09:33:49;;;;;;;;;27.50;25.75;;;;;;;;5073639;28;46137;-69
2022/03/27 09:36:14;;;;;;;;;26.00;24.00;;;;;;;;5075023;28;45371;-71
2022/03/27 09:38:40;;;;;;;;;26.00;25.25;;;;;;;;5067911;28;47812;-69
2022/03/27 09:41:07;;;;;;;;;25.25;23.25;;;;;;;;5074978;28;45388;-69
2022/03/27 09:43:32;;;;;;;;;30.00;26.50;;;;;;;;5072981;27;45799;-68
2022/03/27 09:45:59;;;;;;;;;32.00;29.75;;;;;;;;5074047;28;45498;-67
2022/03/27 09:48:25;;;;;;;;;26.75;25.75;;;;;;;;5073608;27;46558;-68
2022/03/27 09:50:51;;;;;;;;;29.50;27.25;;;;;;;;5069901;27;45389;-68
2022/03/27 09:53:22;;;;;;;;;31.25;28.75;;;;;;;;5074095;27;45423;-68
2022/03/27 09:55:56;;;;;;;;;27.75;25.50;;;;;;;;5060295;27;45282;-68
2022/03/27 09:58:39;;;;;;;;;30.50;27.00;;;;;;;;5073028;28;47369;-69
2022/03/27 10:01:12;;;;;;;;;26.00;24.25;;;;;;;;5074768;28;45478;-69
2022/03/27 10:03:58;;;;;;;;;27.75;27.75;;;;;;;;5074367;27;45395;-66
2022/03/27 10:06:27;;;;;;;;;30.50;28.50;;;;;;;;5073697;28;45484;-65
2022/03/27 10:08:52;;;;;;;;;27.50;27.50;;;;;;;;5071104;28;45647;-66
2022/03/27 10:11:21;;;;;;;;;27.00;24.50;;;;;;;;5074629;28;45601;-67
2022/03/27 10:13:47;;;;;;;;;29.75;25.75;;;;;;;;5073571;28;45517;-66
2022/03/27 10:16:12;;;;;;;;;24.25;22.50;;;;;;;;5075331;27;45429;-67
2022/03/27 10:18:37;;;;;;;;;24.00;23.25;;;;;;;;5074187;28;46233;-66
2022/03/27 10:21:03;;;;;;;;;21.50;21.50;;;;;;;;5074374;27;45384;-66
2022/03/27 10:23:30;;;;;;;;;26.00;25.00;;;;;;;;5074540;27;47631;-68
2022/03/27 10:26:01;;;;;;;;;28.25;27.25;;;;;;;;5057405;28;45457;-68
2022/03/27 10:28:27;;;;;;;;;30.75;28.75;;;;;;;;5071215;28;46431;-69
2022/03/27 10:30:52;;;;;;;;;28.50;26.25;;;;;;;;5074359;28;45580;-68
2022/03/27 10:33:19;;;;;;;;;27.00;26.75;;;;;;;;5074416;28;45291;-67
2022/03/27 10:36:03;;;;;;;;;29.50;28.50;;;;;;;;5074229;27;45448;-68
2022/03/27 10:39:03;;;;;;;;;29.75;28.50;;;;;;;;5073975;28;45790;-66
2022/03/27 10:41:42;;;;;;;;;35.50;29.25;;;;;;;;5017476;28;45514;-67
2022/03/27 10:44:21;;;;;;;;;33.00;29.25;;;;;;;;5029436;28;45717;-67
2022/03/27 10:47:06;;;;;;;;;30.75;29.50;;;;;;;;5033658;28;45288;-66
2022/03/27 10:49:31;;;;;;;;;34.00;30.50;;;;;;;;5028391;28;46316;-66
2022/03/27 10:52:03;;;;;;;;;29.00;27.75;;;;;;;;5032907;28;45443;-67
2022/03/27 10:54:28;;;;;;;;;36.00;31.00;;;;;;;;5017475;28;45370;-68
2022/03/27 10:56:54;;;;;;;;;26.00;26.00;;;;;;;;5033763;28;45449;-67
2022/03/27 10:59:21;;;;;;;;;27.50;25.00;;;;;;;;5033939;28;45900;-67
2022/03/27 11:01:56;;;;;;;;;29.00;28.00;;;;;;;;5033646;28;45425;-67
2022/03/27 11:04:33;;;;;;;;;28.75;27.75;;;;;;;;5035422;28;45310;-68
2022/03/27 11:07:17;;;;;;;;;33.50;32.00;;;;;;;;5032377;28;45374;-67
2022/03/27 11:09:45;;;;;;;;;32.00;27.75;;;;;;;;5031456;28;45669;-67
2022/03/27 11:12:22;;;;;;;;;31.25;28.75;;;;;;;;5033169;28;45404;-67
2022/03/27 11:14:58;;;;;;;;;34.25;31.50;;;;;;;;5037967;28;45639;-66
2022/03/27 11:17:31;;;;;;;;;31.25;28.75;;;;;;;;5077242;27;45538;-67
2022/03/27 11:19:57;;;;;;;;;31.50;26.75;;;;;;;;5061144;28;45931;-66
2022/03/27 11:22:40;;;;;;;;;39.25;33.75;;;;;;;;5077535;27;45517;-66
2022/03/27 11:25:24;;;;;;;;;33.00;30.00;;;;;;;;5077593;28;45471;-68
2022/03/27 11:27:56;;;;;;;;;35.50;31.75;;;;;;;;5076766;28;45497;-68
2022/03/27 11:30:21;;;;;;;;;33.50;27.75;;;;;;;;5069622;28;48426;-67
2022/03/27 11:33:05;;;;;;;;;34.50;32.25;;;;;;;;5076729;28;45344;-67
2022/03/27 11:35:31;;;;;;;;;33.25;30.25;;;;;;;;5075640;28;45350;-68
2022/03/27 11:38:15;;;;;;;;;27.00;23.75;;;;;;;;5077197;28;45385;-68
2022/03/27 11:40:41;;;;;;;;;37.75;34.00;;;;;;;;5075108;28;45736;-69
2022/03/27 11:43:39;;;;;;;;;32.00;30.75;;;;;;;;5077135;28;45272;-67
2022/03/27 11:46:04;;;;;;;;;38.50;33.75;;;;;;;;5014600;28;45339;-69
2022/03/27 11:48:29;;;;;;;;;34.00;32.00;;;;;;;;5012790;28;45585;-68
2022/03/27 11:50:55;;;;;;;;;38.50;34.25;;;;;;;;5012894;28;47830;-67
2022/03/27 11:53:32;;;;;;;;;34.50;31.25;;;;;;;;5013128;28;45328;-68
2022/03/27 11:56:15;;;;;;;;;31.25;29.25;;;;;;;;5014398;28;45498;-68
2022/03/27 11:58:42;;;;;;;;;33.25;31.25;;;;;;;;5013299;28;45314;-69
2022/03/27 12:01:09;;;;;;;;;32.75;29.00;;;;;;;;5012552;28;45503;-68
2022/03/27 12:03:35;;;;;;;;;31.75;28.00;;;;;;;;5012545;28;45536;-67
2022/03/27 12:06:07;;;;;;;;;27.75;27.75;;;;;;;;5012790;28;45434;-68
2022/03/27 12:08:33;;;;;;;;;32.50;29.75;;;;;;;;5012411;28;45504;-68
2022/03/27 12:11:04;;;;;;;;;33.75;29.75;;;;;;;;5012082;28;47541;-67
2022/03/27 12:13:34;;;;;;;;;27.75;26.75;;;;;;;;5014124;28;45350;-67
2022/03/27 12:15:59;;;;;;;;;34.75;28.25;;;;;;;;5013389;28;45324;-68
2022/03/27 12:18:26;;;;;;;;;28.75;26.50;;;;;;;;5012498;28;45458;-68
2022/03/27 12:20:52;;;;;;;;;32.25;30.00;;;;;;;;5022817;28;47777;-68
2022/03/27 12:23:26;;;;;;;;;32.75;26.75;;;;;;;;5075844;28;45184;-68
2022/03/27 12:26:02;;;;;;;;;40.25;33.00;;;;;;;;5076248;27;45354;-67
2022/03/27 12:31:23;;;;;;;;;28.50;28.00;;;;;;;;5076665;28;45331;-67
2022/03/27 12:33:49;;;;;;;;;33.75;29.75;;;;;;;;5075598;27;45529;-67
2022/03/27 12:36:16;;;;;;;;;32.50;30.25;;;;;;;;5075791;27;45262;-67
2022/03/27 12:38:41;;;;;;;;;37.00;31.75;;;;;;;;5067420;28;45436;-69
2022/03/27 12:41:08;;;;;;;;;34.50;30.00;;;;;;;;5076136;27;47041;-68
2022/03/27 12:43:33;;;;;;;;;29.50;29.50;;;;;;;;5075819;27;45442;-69
2022/03/27 12:45:58;;;;;;;;;28.50;28.50;;;;;;;;5076383;27;45568;-68
2022/03/27 12:48:27;;;;;;;;;28.25;23.75;;;;;;;;5075547;28;45368;-68
2022/03/27 12:50:54;;;;;;;;;32.50;31.25;;;;;;;;5075533;27;46498;-68
2022/03/27 12:53:22;;;;;;;;;33.25;28.00;;;;;;;;5072748;28;45575;-68
2022/03/27 12:56:09;;;;;;;;;31.25;29.75;;;;;;;;5074308;28;45450;-69
2022/03/27 12:58:41;;;;;;;;;30.00;29.00;;;;;;;;5072823;28;45531;-67
2022/03/27 13:01:20;;;;;;;;;7.75;7.50;;;;;;;;5075909;27;45844;-68
2022/03/27 13:04:17;;;;;;;;;28.50;26.50;;;;;;;;5075082;27;45356;-67
2022/03/27 13:06:44;;;;;;;;;29.75;26.50;;;;;;;;5012432;28;45276;-69
2022/03/27 13:09:10;;;;;;;;;27.25;24.50;;;;;;;;5012673;28;45387;-67
2022/03/27 13:11:42;;;;;;;;;30.75;27.75;;;;;;;;4994626;28;47778;-67
2022/03/27 13:14:08;;;;;;;;;26.00;24.25;;;;;;;;5011748;28;45434;-68
2022/03/27 13:16:43;;;;;;;;;29.25;27.25;;;;;;;;4996764;28;45403;-69
2022/03/27 13:19:10;;;;;;;;;30.25;24.50;;;;;;;;5013588;28;45373;-68
2022/03/27 13:21:37;;;;;;;;;23.00;20.50;;;;;;;;5012583;28;46030;-69
2022/03/27 13:24:06;;;;;;;;;24.75;20.75;;;;;;;;5012845;28;45569;-69
2022/03/27 13:26:33;;;;;;;;;30.75;28.00;;;;;;;;5012985;28;45570;-68
2022/03/27 13:28:59;;;;;;;;;27.50;27.50;;;;;;;;5012955;28;45324;-68
2022/03/27 13:31:24;;;;;;;;;32.00;30.75;;;;;;;;5013480;28;46691;-69
2022/03/27 13:33:50;;;;;;;;;34.50;29.25;;;;;;;;5012857;28;45651;-67
2022/03/27 13:36:16;;;;;;;;;28.75;27.75;;;;;;;;4994780;28;45483;-67
2022/03/27 13:38:41;;;;;;;;;30.50;25.75;;;;;;;;5012823;28;45431;-68
2022/03/27 13:43:50;;;;;;;;;29.25;26.75;;;;;;;;5074509;28;45292;-69
2022/03/27 13:46:15;;;;;;;;;23.50;22.25;;;;;;;;5075791;28;45344;-67
2022/03/27 13:48:41;;;;;;;;;30.00;24.50;;;;;;;;5067754;28;45557;-69
2022/03/27 13:51:06;;;;;;;;;28.25;27.75;;;;;;;;5073333;28;46597;-68
2022/03/27 13:53:31;;;;;;;;;25.75;21.75;;;;;;;;5075103;27;45368;-67
2022/03/27 13:55:56;;;;;;;;;37.00;32.25;;;;;;;;5075475;28;45234;-69
2022/03/27 13:58:22;;;;;;;;;27.50;24.50;;;;;;;;5075684;28;45476;-68
2022/03/27 14:00:47;;;;;;;;;30.00;26.50;;;;;;;;5074731;27;46671;-69
2022/03/27 14:03:12;;;;;;;;;34.00;29.75;;;;;;;;5073280;28;46442;-69
2022/03/27 14:05:40;;;;;;;;;27.00;27.00;;;;;;;;5074873;28;45495;-67
2022/03/27 14:08:06;;;;;;;;;31.00;28.25;;;;;;;;5074831;27;45372;-69
2022/03/27 14:10:31;;;;;;;;;32.75;30.75;;;;;;;;5074546;28;46487;-69
2022/03/27 14:12:57;;;;;;;;;30.75;28.00;;;;;;;;5073891;28;45389;-69
2022/03/27 14:15:22;;;;;;;;;26.00;23.75;;;;;;;;5074904;27;45376;-68
2022/03/27 14:17:48;;;;;;;;;28.00;26.50;;;;;;;;5074568;27;45187;-69
2022/03/27 14:20:13;;;;;;;;;27.75;27.00;;;;;;;;5075441;28;47464;-69
2022/03/27 14:22:38;;;;;;;;;29.00;26.75;;;;;;;;5077094;28;45641;-68
2022/03/27 14:25:04;;;;;;;;;33.25;31.25;;;;;;;;5077561;28;45286;-69
2022/03/27 14:27:30;;;;;;;;;38.50;31.50;;;;;;;;5078480;27;45300;-69